sensor_id;sensor_type;location;lat;lon;timestamp;P1;durP1;ratioP1;P2;durP2;ratioP2
60851;SDS011;48553;50.766;2.900;2022-11-13T00:00:56;22.52;;;13.13;;
60851;SDS011;48553;50.766;2.900;2022-11-13T00:03:57;23.02;;;13.27;;
60851;SDS011;48553;50.766;2.900;2022-11-13T00:06:58;23.83;;;13.45;;
60851;SDS011;48553;50.766;2.900;2022-11-13T00:09:58;23.45;;;13.63;;
60851;SDS011;48553;50.766;2.900;2022-11-13T00:12:59;23.52;;;13.43;;
60851;SDS011;48553;50.766;2.900;2022-11-13T00:16:00;25.08;;;13.95;;
60851;SDS011;48553;50.766;2.900;2022-11-13T00:19:02;24.00;;;14.13;;
60851;SDS011;48553;50.766;2.900;2022-11-13T00:22:02;26.50;;;13.90;;
60851;SDS011;48553;50.766;2.900;2022-11-13T00:25:03;23.60;;;13.50;;
60851;SDS011;48553;50.766;2.900;2022-11-13T00:28:03;23.38;;;13.95;;
60851;SDS011;48553;50.766;2.900;2022-11-13T00:31:04;26.33;;;13.95;;
60851;SDS011;48553;50.766;2.900;2022-11-13T00:34:06;25.10;;;13.98;;
60851;SDS011;48553;50.766;2.900;2022-11-13T00:37:08;23.35;;;13.80;;
60851;SDS011;48553;50.766;2.900;2022-11-13T00:40:08;25.33;;;14.18;;
60851;SDS011;48553;50.766;2.900;2022-11-13T00:43:09;22.65;;;13.40;;
60851;SDS011;48553;50.766;2.900;2022-11-13T00:46:09;22.58;;;13.30;;
60851;SDS011;48553;50.766;2.900;2022-11-13T00:49:10;22.27;;;13.20;;
60851;SDS011;48553;50.766;2.900;2022-11-13T00:52:12;24.67;;;13.75;;
60851;SDS011;48553;50.766;2.900;2022-11-13T00:55:12;20.15;;;12.90;;
60851;SDS011;48553;50.766;2.900;2022-11-13T00:58:13;23.25;;;13.07;;
60851;SDS011;48553;50.766;2.900;2022-11-13T01:01:15;23.70;;;13.73;;
60851;SDS011;48553;50.766;2.900;2022-11-13T01:04:17;25.08;;;14.02;;
60851;SDS011;48553;50.766;2.900;2022-11-13T01:07:17;24.10;;;13.02;;
60851;SDS011;48553;50.766;2.900;2022-11-13T01:10:18;23.13;;;12.50;;
60851;SDS011;48553;50.766;2.900;2022-11-13T01:13:19;21.65;;;12.88;;
60851;SDS011;48553;50.766;2.900;2022-11-13T01:16:20;23.38;;;12.68;;
60851;SDS011;48553;50.766;2.900;2022-11-13T01:19:23;22.45;;;12.82;;
60851;SDS011;48553;50.766;2.900;2022-11-13T01:22:23;24.13;;;13.02;;
60851;SDS011;48553;50.766;2.900;2022-11-13T01:25:24;21.75;;;12.40;;
60851;SDS011;48553;50.766;2.900;2022-11-13T01:28:24;22.50;;;12.23;;
60851;SDS011;48553;50.766;2.900;2022-11-13T01:31:29;20.73;;;12.48;;
60851;SDS011;48553;50.766;2.900;2022-11-13T01:34:30;23.98;;;13.50;;
60851;SDS011;48553;50.766;2.900;2022-11-13T01:37:30;22.98;;;13.23;;
60851;SDS011;48553;50.766;2.900;2022-11-13T01:40:31;23.73;;;13.43;;
60851;SDS011;48553;50.766;2.900;2022-11-13T01:43:35;25.05;;;14.40;;
60851;SDS011;48553;50.766;2.900;2022-11-13T01:46:44;24.67;;;14.15;;
60851;SDS011;48553;50.766;2.900;2022-11-13T01:49:52;26.88;;;13.80;;
60851;SDS011;48553;50.766;2.900;2022-11-13T01:52:55;23.85;;;13.55;;
60851;SDS011;48553;50.766;2.900;2022-11-13T01:55:55;24.23;;;13.77;;
60851;SDS011;48553;50.766;2.900;2022-11-13T01:59:04;23.65;;;13.45;;
60851;SDS011;48553;50.766;2.900;2022-11-13T02:02:09;22.65;;;13.15;;
60851;SDS011;48553;50.766;2.900;2022-11-13T02:05:09;23.70;;;12.85;;
60851;SDS011;48553;50.766;2.900;2022-11-13T02:08:10;22.55;;;12.85;;
60851;SDS011;48553;50.766;2.900;2022-11-13T02:11:11;26.52;;;13.60;;
60851;SDS011;48553;50.766;2.900;2022-11-13T02:14:12;21.60;;;12.93;;
60851;SDS011;48553;50.766;2.900;2022-11-13T02:17:17;23.13;;;12.35;;
60851;SDS011;48553;50.766;2.900;2022-11-13T02:23:48;22.95;;;12.93;;
60851;SDS011;48553;50.766;2.900;2022-11-13T02:26:59;19.90;;;12.00;;
60851;SDS011;48553;50.766;2.900;2022-11-13T02:30:12;21.25;;;12.40;;
60851;SDS011;48553;50.766;2.900;2022-11-13T02:33:20;22.10;;;12.13;;
60851;SDS011;48553;50.766;2.900;2022-11-13T02:36:29;20.60;;;11.23;;
60851;SDS011;48553;50.766;2.900;2022-11-13T02:39:30;21.92;;;12.02;;
60851;SDS011;48553;50.766;2.900;2022-11-13T02:42:30;20.77;;;12.00;;
60851;SDS011;48553;50.766;2.900;2022-11-13T02:45:30;23.25;;;12.00;;
60851;SDS011;48553;50.766;2.900;2022-11-13T02:48:31;22.13;;;12.27;;
60851;SDS011;48553;50.766;2.900;2022-11-13T02:51:31;21.08;;;11.80;;
60851;SDS011;48553;50.766;2.900;2022-11-13T02:54:32;21.50;;;12.00;;
60851;SDS011;48553;50.766;2.900;2022-11-13T02:57:33;21.63;;;11.75;;
60851;SDS011;48553;50.766;2.900;2022-11-13T03:00:33;21.00;;;11.32;;
60851;SDS011;48553;50.766;2.900;2022-11-13T03:03:34;19.33;;;11.50;;
60851;SDS011;48553;50.766;2.900;2022-11-13T03:06:34;21.45;;;12.20;;
60851;SDS011;48553;50.766;2.900;2022-11-13T03:09:34;20.67;;;11.82;;
60851;SDS011;48553;50.766;2.900;2022-11-13T03:12:35;19.50;;;11.75;;
60851;SDS011;48553;50.766;2.900;2022-11-13T03:15:36;21.25;;;12.32;;
60851;SDS011;48553;50.766;2.900;2022-11-13T03:18:36;20.75;;;11.68;;
60851;SDS011;48553;50.766;2.900;2022-11-13T03:21:37;18.80;;;11.07;;
60851;SDS011;48553;50.766;2.900;2022-11-13T03:24:38;19.48;;;11.30;;
60851;SDS011;48553;50.766;2.900;2022-11-13T03:27:38;21.50;;;11.90;;
60851;SDS011;48553;50.766;2.900;2022-11-13T03:30:39;21.02;;;11.90;;
60851;SDS011;48553;50.766;2.900;2022-11-13T03:33:39;21.00;;;11.70;;
60851;SDS011;48553;50.766;2.900;2022-11-13T03:36:39;23.02;;;11.57;;
60851;SDS011;48553;50.766;2.900;2022-11-13T03:39:40;24.08;;;12.15;;
60851;SDS011;48553;50.766;2.900;2022-11-13T03:42:40;21.58;;;11.63;;
60851;SDS011;48553;50.766;2.900;2022-11-13T03:45:43;21.80;;;11.70;;
60851;SDS011;48553;50.766;2.900;2022-11-13T03:48:44;22.13;;;12.10;;
60851;SDS011;48553;50.766;2.900;2022-11-13T03:51:45;21.42;;;11.73;;
60851;SDS011;48553;50.766;2.900;2022-11-13T03:54:45;23.40;;;11.43;;
60851;SDS011;48553;50.766;2.900;2022-11-13T03:57:46;22.60;;;12.52;;
60851;SDS011;48553;50.766;2.900;2022-11-13T04:00:47;22.50;;;11.65;;
60851;SDS011;48553;50.766;2.900;2022-11-13T04:03:48;20.30;;;11.32;;
60851;SDS011;48553;50.766;2.900;2022-11-13T04:06:48;20.05;;;10.93;;
60851;SDS011;48553;50.766;2.900;2022-11-13T04:09:48;20.00;;;11.25;;
60851;SDS011;48553;50.766;2.900;2022-11-13T04:12:49;20.80;;;10.93;;
60851;SDS011;48553;50.766;2.900;2022-11-13T04:15:49;19.10;;;10.93;;
60851;SDS011;48553;50.766;2.900;2022-11-13T04:18:50;22.08;;;11.30;;
60851;SDS011;48553;50.766;2.900;2022-11-13T04:21:50;18.42;;;10.93;;
60851;SDS011;48553;50.766;2.900;2022-11-13T04:24:51;21.27;;;11.48;;
60851;SDS011;48553;50.766;2.900;2022-11-13T04:27:51;22.25;;;11.88;;
60851;SDS011;48553;50.766;2.900;2022-11-13T04:30:52;23.42;;;11.82;;
60851;SDS011;48553;50.766;2.900;2022-11-13T04:33:53;21.02;;;11.63;;
60851;SDS011;48553;50.766;2.900;2022-11-13T04:36:54;22.38;;;11.23;;
60851;SDS011;48553;50.766;2.900;2022-11-13T04:39:54;20.80;;;10.90;;
60851;SDS011;48553;50.766;2.900;2022-11-13T04:42:55;21.48;;;11.25;;
60851;SDS011;48553;50.766;2.900;2022-11-13T04:45:55;19.70;;;11.35;;
60851;SDS011;48553;50.766;2.900;2022-11-13T04:48:55;21.02;;;10.93;;
60851;SDS011;48553;50.766;2.900;2022-11-13T04:51:56;19.85;;;11.65;;
60851;SDS011;48553;50.766;2.900;2022-11-13T04:54:56;19.90;;;10.65;;
60851;SDS011;48553;50.766;2.900;2022-11-13T04:57:57;23.70;;;11.82;;
60851;SDS011;48553;50.766;2.900;2022-11-13T05:00:57;21.88;;;11.40;;
60851;SDS011;48553;50.766;2.900;2022-11-13T05:03:58;22.30;;;11.52;;
60851;SDS011;48553;50.766;2.900;2022-11-13T05:06:58;21.25;;;11.40;;
60851;SDS011;48553;50.766;2.900;2022-11-13T05:09:59;20.33;;;10.80;;
60851;SDS011;48553;50.766;2.900;2022-11-13T05:12:59;19.88;;;10.95;;
60851;SDS011;48553;50.766;2.900;2022-11-13T05:16:04;19.38;;;11.25;;
60851;SDS011;48553;50.766;2.900;2022-11-13T05:19:06;21.63;;;11.65;;
60851;SDS011;48553;50.766;2.900;2022-11-13T05:22:07;21.23;;;11.50;;
60851;SDS011;48553;50.766;2.900;2022-11-13T05:25:08;23.13;;;11.55;;
60851;SDS011;48553;50.766;2.900;2022-11-13T05:28:09;21.40;;;11.07;;
60851;SDS011;48553;50.766;2.900;2022-11-13T05:31:12;21.95;;;11.32;;
60851;SDS011;48553;50.766;2.900;2022-11-13T05:34:14;22.58;;;11.40;;
60851;SDS011;48553;50.766;2.900;2022-11-13T05:37:15;19.52;;;11.35;;
60851;SDS011;48553;50.766;2.900;2022-11-13T05:40:15;21.95;;;11.32;;
60851;SDS011;48553;50.766;2.900;2022-11-13T05:43:16;21.52;;;11.57;;
60851;SDS011;48553;50.766;2.900;2022-11-13T05:46:26;20.45;;;10.52;;
60851;SDS011;48553;50.766;2.900;2022-11-13T05:49:27;21.90;;;11.05;;
60851;SDS011;48553;50.766;2.900;2022-11-13T05:52:28;20.75;;;10.60;;
60851;SDS011;48553;50.766;2.900;2022-11-13T05:55:28;19.05;;;10.65;;
60851;SDS011;48553;50.766;2.900;2022-11-13T05:58:29;21.13;;;10.50;;
60851;SDS011;48553;50.766;2.900;2022-11-13T06:01:31;18.45;;;9.90;;
60851;SDS011;48553;50.766;2.900;2022-11-13T06:04:34;21.67;;;10.18;;
60851;SDS011;48553;50.766;2.900;2022-11-13T06:07:35;19.50;;;10.55;;
60851;SDS011;48553;50.766;2.900;2022-11-13T06:10:35;19.33;;;10.50;;
60851;SDS011;48553;50.766;2.900;2022-11-13T06:13:36;21.13;;;10.85;;
60851;SDS011;48553;50.766;2.900;2022-11-13T06:16:37;19.60;;;10.38;;
60851;SDS011;48553;50.766;2.900;2022-11-13T06:19:38;19.33;;;10.70;;
60851;SDS011;48553;50.766;2.900;2022-11-13T06:22:38;20.35;;;10.50;;
60851;SDS011;48553;50.766;2.900;2022-11-13T06:25:39;21.05;;;10.10;;
60851;SDS011;48553;50.766;2.900;2022-11-13T06:28:39;18.88;;;10.32;;
60851;SDS011;48553;50.766;2.900;2022-11-13T06:31:40;18.95;;;10.18;;
60851;SDS011;48553;50.766;2.900;2022-11-13T06:34:40;19.55;;;10.35;;
60851;SDS011;48553;50.766;2.900;2022-11-13T06:37:40;17.67;;;9.68;;
60851;SDS011;48553;50.766;2.900;2022-11-13T06:40:41;19.13;;;9.75;;
60851;SDS011;48553;50.766;2.900;2022-11-13T06:43:41;18.10;;;9.88;;
60851;SDS011;48553;50.766;2.900;2022-11-13T06:46:43;19.25;;;10.35;;
60851;SDS011;48553;50.766;2.900;2022-11-13T06:49:43;20.67;;;10.38;;
60851;SDS011;48553;50.766;2.900;2022-11-13T06:52:43;19.40;;;10.10;;
60851;SDS011;48553;50.766;2.900;2022-11-13T06:55:44;17.60;;;9.98;;
60851;SDS011;48553;50.766;2.900;2022-11-13T06:58:47;17.60;;;9.32;;
60851;SDS011;48553;50.766;2.900;2022-11-13T07:01:49;18.23;;;9.68;;
60851;SDS011;48553;50.766;2.900;2022-11-13T07:04:50;17.98;;;9.88;;
60851;SDS011;48553;50.766;2.900;2022-11-13T07:07:50;19.50;;;10.55;;
60851;SDS011;48553;50.766;2.900;2022-11-13T07:10:52;18.33;;;9.63;;
60851;SDS011;48553;50.766;2.900;2022-11-13T07:13:54;17.90;;;9.90;;
60851;SDS011;48553;50.766;2.900;2022-11-13T07:16:54;18.88;;;9.82;;
60851;SDS011;48553;50.766;2.900;2022-11-13T07:19:55;17.52;;;9.73;;
60851;SDS011;48553;50.766;2.900;2022-11-13T07:22:56;18.65;;;10.60;;
60851;SDS011;48553;50.766;2.900;2022-11-13T07:25:57;18.33;;;10.20;;
60851;SDS011;48553;50.766;2.900;2022-11-13T07:28:57;18.60;;;10.30;;
60851;SDS011;48553;50.766;2.900;2022-11-13T07:31:58;20.08;;;10.40;;
60851;SDS011;48553;50.766;2.900;2022-11-13T07:34:58;18.88;;;10.30;;
60851;SDS011;48553;50.766;2.900;2022-11-13T07:37:58;19.92;;;10.15;;
60851;SDS011;48553;50.766;2.900;2022-11-13T07:40:59;17.92;;;10.02;;
60851;SDS011;48553;50.766;2.900;2022-11-13T07:43:59;18.13;;;10.15;;
60851;SDS011;48553;50.766;2.900;2022-11-13T07:47:00;17.98;;;10.20;;
60851;SDS011;48553;50.766;2.900;2022-11-13T07:50:01;18.08;;;10.23;;
60851;SDS011;48553;50.766;2.900;2022-11-13T07:53:02;16.48;;;9.82;;
60851;SDS011;48553;50.766;2.900;2022-11-13T07:56:04;18.27;;;10.07;;
60851;SDS011;48553;50.766;2.900;2022-11-13T07:59:05;15.88;;;10.13;;
60851;SDS011;48553;50.766;2.900;2022-11-13T08:02:08;16.80;;;9.95;;
60851;SDS011;48553;50.766;2.900;2022-11-13T08:05:13;16.40;;;9.90;;
60851;SDS011;48553;50.766;2.900;2022-11-13T08:08:14;17.30;;;10.00;;
60851;SDS011;48553;50.766;2.900;2022-11-13T08:11:14;16.88;;;10.27;;
60851;SDS011;48553;50.766;2.900;2022-11-13T08:14:15;14.68;;;10.00;;
60851;SDS011;48553;50.766;2.900;2022-11-13T08:17:15;14.60;;;9.65;;
60851;SDS011;48553;50.766;2.900;2022-11-13T08:20:16;15.60;;;9.68;;
60851;SDS011;48553;50.766;2.900;2022-11-13T08:23:16;18.25;;;10.35;;
60851;SDS011;48553;50.766;2.900;2022-11-13T08:26:17;16.85;;;10.02;;
60851;SDS011;48553;50.766;2.900;2022-11-13T08:29:17;16.52;;;10.15;;
60851;SDS011;48553;50.766;2.900;2022-11-13T08:32:18;16.65;;;10.43;;
60851;SDS011;48553;50.766;2.900;2022-11-13T08:35:19;17.55;;;10.27;;
60851;SDS011;48553;50.766;2.900;2022-11-13T08:38:20;16.40;;;10.60;;
60851;SDS011;48553;50.766;2.900;2022-11-13T08:41:20;17.27;;;10.43;;
60851;SDS011;48553;50.766;2.900;2022-11-13T08:44:21;17.38;;;10.38;;
60851;SDS011;48553;50.766;2.900;2022-11-13T08:47:21;16.25;;;10.52;;
60851;SDS011;48553;50.766;2.900;2022-11-13T08:50:21;17.23;;;10.55;;
60851;SDS011;48553;50.766;2.900;2022-11-13T08:53:22;16.73;;;10.70;;
60851;SDS011;48553;50.766;2.900;2022-11-13T08:56:23;17.00;;;10.57;;
60851;SDS011;48553;50.766;2.900;2022-11-13T08:59:24;16.52;;;10.27;;
60851;SDS011;48553;50.766;2.900;2022-11-13T09:02:26;16.55;;;10.35;;
60851;SDS011;48553;50.766;2.900;2022-11-13T09:05:27;16.33;;;10.15;;
60851;SDS011;48553;50.766;2.900;2022-11-13T09:08:29;16.27;;;10.32;;
60851;SDS011;48553;50.766;2.900;2022-11-13T09:11:31;18.25;;;10.43;;
60851;SDS011;48553;50.766;2.900;2022-11-13T09:14:32;17.00;;;9.75;;
60851;SDS011;48553;50.766;2.900;2022-11-13T09:17:32;14.93;;;9.80;;
60851;SDS011;48553;50.766;2.900;2022-11-13T09:20:33;15.27;;;9.68;;
60851;SDS011;48553;50.766;2.900;2022-11-13T09:23:33;16.65;;;10.10;;
60851;SDS011;48553;50.766;2.900;2022-11-13T09:26:35;16.13;;;9.30;;
60851;SDS011;48553;50.766;2.900;2022-11-13T09:29:35;14.73;;;9.75;;
60851;SDS011;48553;50.766;2.900;2022-11-13T09:32:36;17.25;;;9.63;;
60851;SDS011;48553;50.766;2.900;2022-11-13T09:35:36;14.82;;;9.73;;
60851;SDS011;48553;50.766;2.900;2022-11-13T09:38:36;14.48;;;9.40;;
60851;SDS011;48553;50.766;2.900;2022-11-13T09:41:45;15.98;;;9.30;;
60851;SDS011;48553;50.766;2.900;2022-11-13T09:44:51;16.98;;;9.65;;
60851;SDS011;48553;50.766;2.900;2022-11-13T09:48:00;17.17;;;9.75;;
60851;SDS011;48553;50.766;2.900;2022-11-13T09:51:34;16.60;;;9.50;;
60851;SDS011;48553;50.766;2.900;2022-11-13T09:54:37;15.50;;;9.20;;
60851;SDS011;48553;50.766;2.900;2022-11-13T09:57:46;15.43;;;9.10;;
60851;SDS011;48553;50.766;2.900;2022-11-13T10:00:52;14.73;;;9.07;;
60851;SDS011;48553;50.766;2.900;2022-11-13T10:03:57;15.57;;;9.23;;
60851;SDS011;48553;50.766;2.900;2022-11-13T10:07:09;14.65;;;8.98;;
60851;SDS011;48553;50.766;2.900;2022-11-13T10:16:38;16.67;;;9.93;;
60851;SDS011;48553;50.766;2.900;2022-11-13T10:22:58;17.50;;;10.00;;
60851;SDS011;48553;50.766;2.900;2022-11-13T10:26:15;16.77;;;10.43;;
60851;SDS011;48553;50.766;2.900;2022-11-13T10:29:18;16.10;;;10.55;;
60851;SDS011;48553;50.766;2.900;2022-11-13T10:32:23;18.40;;;10.68;;
60851;SDS011;48553;50.766;2.900;2022-11-13T10:38:31;15.60;;;9.73;;
60851;SDS011;48553;50.766;2.900;2022-11-13T10:41:47;16.38;;;9.90;;
60851;SDS011;48553;50.766;2.900;2022-11-13T10:44:54;16.35;;;10.48;;
60851;SDS011;48553;50.766;2.900;2022-11-13T10:47:56;16.52;;;10.43;;
60851;SDS011;48553;50.766;2.900;2022-11-13T10:50:58;17.48;;;10.25;;
60851;SDS011;48553;50.766;2.900;2022-11-13T10:54:14;17.77;;;11.10;;
60851;SDS011;48553;50.766;2.900;2022-11-13T10:57:32;17.23;;;10.40;;
60851;SDS011;48553;50.766;2.900;2022-11-13T11:00:34;18.20;;;10.27;;
60851;SDS011;48553;50.766;2.900;2022-11-13T11:03:37;15.82;;;10.07;;
60851;SDS011;48553;50.766;2.900;2022-11-13T11:06:48;16.15;;;10.10;;
60851;SDS011;48553;50.766;2.900;2022-11-13T11:09:50;18.17;;;10.68;;
60851;SDS011;48553;50.766;2.900;2022-11-13T11:12:54;16.08;;;10.40;;
60851;SDS011;48553;50.766;2.900;2022-11-13T11:15:57;18.05;;;10.65;;
60851;SDS011;48553;50.766;2.900;2022-11-13T11:19:01;16.27;;;11.05;;
60851;SDS011;48553;50.766;2.900;2022-11-13T11:22:18;18.75;;;10.55;;
60851;SDS011;48553;50.766;2.900;2022-11-13T11:28:59;17.90;;;10.43;;
60851;SDS011;48553;50.766;2.900;2022-11-13T11:32:17;17.25;;;10.10;;
60851;SDS011;48553;50.766;2.900;2022-11-13T11:43:00;17.30;;;10.52;;
60851;SDS011;48553;50.766;2.900;2022-11-13T11:46:09;16.40;;;10.00;;
60851;SDS011;48553;50.766;2.900;2022-11-13T11:49:13;17.42;;;10.13;;
60851;SDS011;48553;50.766;2.900;2022-11-13T11:52:27;17.45;;;10.27;;
60851;SDS011;48553;50.766;2.900;2022-11-13T11:56:06;16.08;;;9.85;;
60851;SDS011;48553;50.766;2.900;2022-11-13T12:05:59;18.52;;;10.73;;
60851;SDS011;48553;50.766;2.900;2022-11-13T12:09:23;16.20;;;9.65;;
60851;SDS011;48553;50.766;2.900;2022-11-13T12:12:41;15.68;;;9.98;;
60851;SDS011;48553;50.766;2.900;2022-11-13T12:25:51;14.20;;;8.75;;
60851;SDS011;48553;50.766;2.900;2022-11-13T12:35:43;15.00;;;8.88;;
60851;SDS011;48553;50.766;2.900;2022-11-13T12:38:51;14.27;;;8.70;;
60851;SDS011;48553;50.766;2.900;2022-11-13T12:41:59;15.48;;;8.68;;
60851;SDS011;48553;50.766;2.900;2022-11-13T12:48:37;13.25;;;8.43;;
60851;SDS011;48553;50.766;2.900;2022-11-13T12:51:39;12.38;;;7.68;;
60851;SDS011;48553;50.766;2.900;2022-11-13T12:54:40;14.05;;;8.02;;
60851;SDS011;48553;50.766;2.900;2022-11-13T12:57:45;14.35;;;8.35;;
60851;SDS011;48553;50.766;2.900;2022-11-13T13:00:51;13.00;;;8.13;;
60851;SDS011;48553;50.766;2.900;2022-11-13T13:07:51;12.27;;;7.40;;
60851;SDS011;48553;50.766;2.900;2022-11-13T13:18:11;12.60;;;8.02;;
60851;SDS011;48553;50.766;2.900;2022-11-13T13:21:25;12.80;;;8.23;;
60851;SDS011;48553;50.766;2.900;2022-11-13T13:27:37;13.90;;;8.10;;
60851;SDS011;48553;50.766;2.900;2022-11-13T13:30:47;13.43;;;8.38;;
60851;SDS011;48553;50.766;2.900;2022-11-13T13:37:27;13.27;;;8.05;;
60851;SDS011;48553;50.766;2.900;2022-11-13T13:40:52;11.98;;;7.78;;
60851;SDS011;48553;50.766;2.900;2022-11-13T13:47:25;12.77;;;8.02;;
60851;SDS011;48553;50.766;2.900;2022-11-13T13:50:31;13.98;;;8.35;;
60851;SDS011;48553;50.766;2.900;2022-11-13T13:53:34;14.03;;;8.87;;
60851;SDS011;48553;50.766;2.900;2022-11-13T13:56:40;12.80;;;7.60;;
60851;SDS011;48553;50.766;2.900;2022-11-13T13:59:41;14.98;;;9.60;;
60851;SDS011;48553;50.766;2.900;2022-11-13T14:02:46;11.85;;;7.65;;
60851;SDS011;48553;50.766;2.900;2022-11-13T14:05:48;13.27;;;7.85;;
60851;SDS011;48553;50.766;2.900;2022-11-13T14:08:48;12.85;;;8.15;;
60851;SDS011;48553;50.766;2.900;2022-11-13T14:12:22;13.65;;;8.48;;
60851;SDS011;48553;50.766;2.900;2022-11-13T14:15:24;14.20;;;8.32;;
60851;SDS011;48553;50.766;2.900;2022-11-13T14:18:27;11.55;;;7.38;;
60851;SDS011;48553;50.766;2.900;2022-11-13T14:21:28;11.80;;;7.70;;
60851;SDS011;48553;50.766;2.900;2022-11-13T14:24:32;12.70;;;8.25;;
60851;SDS011;48553;50.766;2.900;2022-11-13T14:27:38;13.85;;;7.63;;
60851;SDS011;48553;50.766;2.900;2022-11-13T14:30:39;12.02;;;7.20;;
60851;SDS011;48553;50.766;2.900;2022-11-13T14:33:41;12.38;;;8.13;;
60851;SDS011;48553;50.766;2.900;2022-11-13T14:36:44;12.32;;;7.93;;
60851;SDS011;48553;50.766;2.900;2022-11-13T14:39:45;12.13;;;7.30;;
60851;SDS011;48553;50.766;2.900;2022-11-13T14:42:51;13.35;;;7.88;;
60851;SDS011;48553;50.766;2.900;2022-11-13T14:45:58;13.77;;;7.93;;
60851;SDS011;48553;50.766;2.900;2022-11-13T14:49:00;11.25;;;7.13;;
60851;SDS011;48553;50.766;2.900;2022-11-13T14:52:01;10.63;;;7.47;;
60851;SDS011;48553;50.766;2.900;2022-11-13T14:55:03;12.20;;;7.45;;
60851;SDS011;48553;50.766;2.900;2022-11-13T14:58:09;11.90;;;7.40;;
60851;SDS011;48553;50.766;2.900;2022-11-13T15:01:12;11.98;;;7.45;;
60851;SDS011;48553;50.766;2.900;2022-11-13T15:04:17;13.10;;;7.88;;
60851;SDS011;48553;50.766;2.900;2022-11-13T15:07:25;11.85;;;7.95;;
60851;SDS011;48553;50.766;2.900;2022-11-13T15:10:28;12.98;;;8.07;;
60851;SDS011;48553;50.766;2.900;2022-11-13T15:13:29;13.63;;;8.10;;
60851;SDS011;48553;50.766;2.900;2022-11-13T15:16:30;12.23;;;7.90;;
60851;SDS011;48553;50.766;2.900;2022-11-13T15:19:31;12.68;;;8.27;;
60851;SDS011;48553;50.766;2.900;2022-11-13T15:22:34;12.40;;;7.82;;
60851;SDS011;48553;50.766;2.900;2022-11-13T15:25:37;14.35;;;8.43;;
60851;SDS011;48553;50.766;2.900;2022-11-13T15:28:37;14.38;;;8.57;;
60851;SDS011;48553;50.766;2.900;2022-11-13T15:31:39;13.18;;;8.48;;
60851;SDS011;48553;50.766;2.900;2022-11-13T15:34:41;14.90;;;9.25;;
60851;SDS011;48553;50.766;2.900;2022-11-13T15:37:42;16.58;;;9.13;;
60851;SDS011;48553;50.766;2.900;2022-11-13T15:40:44;14.57;;;8.85;;
60851;SDS011;48553;50.766;2.900;2022-11-13T15:43:45;16.67;;;9.27;;
60851;SDS011;48553;50.766;2.900;2022-11-13T15:46:50;14.95;;;9.40;;
60851;SDS011;48553;50.766;2.900;2022-11-13T15:49:50;14.73;;;9.23;;
60851;SDS011;48553;50.766;2.900;2022-11-13T15:52:51;16.27;;;9.48;;
60851;SDS011;48553;50.766;2.900;2022-11-13T15:55:52;16.83;;;9.85;;
60851;SDS011;48553;50.766;2.900;2022-11-13T15:58:52;14.63;;;9.32;;
60851;SDS011;48553;50.766;2.900;2022-11-13T16:01:53;14.68;;;9.20;;
60851;SDS011;48553;50.766;2.900;2022-11-13T16:04:55;15.25;;;9.10;;
60851;SDS011;48553;50.766;2.900;2022-11-13T16:07:56;18.25;;;9.98;;
60851;SDS011;48553;50.766;2.900;2022-11-13T16:10:56;17.25;;;9.27;;
60851;SDS011;48553;50.766;2.900;2022-11-13T16:13:57;17.30;;;10.02;;
60851;SDS011;48553;50.766;2.900;2022-11-13T16:16:57;16.67;;;9.85;;
60851;SDS011;48553;50.766;2.900;2022-11-13T16:19:57;17.10;;;10.65;;
60851;SDS011;48553;50.766;2.900;2022-11-13T16:22:58;16.92;;;10.57;;
60851;SDS011;48553;50.766;2.900;2022-11-13T16:25:58;17.13;;;10.27;;
60851;SDS011;48553;50.766;2.900;2022-11-13T16:29:09;16.52;;;10.13;;
60851;SDS011;48553;50.766;2.900;2022-11-13T16:32:19;16.30;;;9.82;;
60851;SDS011;48553;50.766;2.900;2022-11-13T16:35:19;18.70;;;10.75;;
60851;SDS011;48553;50.766;2.900;2022-11-13T16:38:20;17.67;;;10.30;;
60851;SDS011;48553;50.766;2.900;2022-11-13T16:41:20;17.20;;;10.18;;
60851;SDS011;48553;50.766;2.900;2022-11-13T16:44:22;17.65;;;9.88;;
60851;SDS011;48553;50.766;2.900;2022-11-13T16:47:24;17.13;;;10.23;;
60851;SDS011;48553;50.766;2.900;2022-11-13T16:50:27;16.85;;;10.45;;
60851;SDS011;48553;50.766;2.900;2022-11-13T16:53:29;17.90;;;10.23;;
60851;SDS011;48553;50.766;2.900;2022-11-13T16:56:30;16.50;;;9.68;;
60851;SDS011;48553;50.766;2.900;2022-11-13T16:59:30;17.08;;;10.27;;
60851;SDS011;48553;50.766;2.900;2022-11-13T17:02:32;16.33;;;10.15;;
60851;SDS011;48553;50.766;2.900;2022-11-13T17:05:33;16.67;;;10.15;;
60851;SDS011;48553;50.766;2.900;2022-11-13T17:08:33;18.38;;;10.60;;
60851;SDS011;48553;50.766;2.900;2022-11-13T17:11:34;16.77;;;9.48;;
60851;SDS011;48553;50.766;2.900;2022-11-13T17:14:34;18.35;;;10.32;;
60851;SDS011;48553;50.766;2.900;2022-11-13T17:17:34;17.63;;;10.27;;
60851;SDS011;48553;50.766;2.900;2022-11-13T17:20:35;18.23;;;10.32;;
60851;SDS011;48553;50.766;2.900;2022-11-13T17:23:36;17.92;;;10.18;;
60851;SDS011;48553;50.766;2.900;2022-11-13T17:26:36;18.15;;;10.85;;
60851;SDS011;48553;50.766;2.900;2022-11-13T17:29:37;18.45;;;10.18;;
60851;SDS011;48553;50.766;2.900;2022-11-13T17:32:37;17.23;;;10.45;;
60851;SDS011;48553;50.766;2.900;2022-11-13T17:35:38;17.77;;;10.98;;
60851;SDS011;48553;50.766;2.900;2022-11-13T17:38:38;19.73;;;11.15;;
60851;SDS011;48553;50.766;2.900;2022-11-13T17:41:39;18.67;;;11.40;;
60851;SDS011;48553;50.766;2.900;2022-11-13T17:44:39;19.65;;;10.98;;
60851;SDS011;48553;50.766;2.900;2022-11-13T17:47:40;18.90;;;10.98;;
60851;SDS011;48553;50.766;2.900;2022-11-13T17:50:40;20.48;;;11.35;;
60851;SDS011;48553;50.766;2.900;2022-11-13T17:53:41;18.83;;;11.25;;
60851;SDS011;48553;50.766;2.900;2022-11-13T17:56:41;18.63;;;10.98;;
60851;SDS011;48553;50.766;2.900;2022-11-13T17:59:42;19.58;;;11.35;;
60851;SDS011;48553;50.766;2.900;2022-11-13T18:02:43;19.30;;;10.77;;
60851;SDS011;48553;50.766;2.900;2022-11-13T18:05:44;19.13;;;11.43;;
60851;SDS011;48553;50.766;2.900;2022-11-13T18:08:45;19.90;;;11.73;;
60851;SDS011;48553;50.766;2.900;2022-11-13T18:11:46;21.38;;;11.43;;
60851;SDS011;48553;50.766;2.900;2022-11-13T18:14:46;19.67;;;11.60;;
60851;SDS011;48553;50.766;2.900;2022-11-13T18:17:51;20.38;;;12.07;;
60851;SDS011;48553;50.766;2.900;2022-11-13T18:20:51;20.13;;;11.32;;
60851;SDS011;48553;50.766;2.900;2022-11-13T18:23:59;23.95;;;12.52;;
60851;SDS011;48553;50.766;2.900;2022-11-13T18:27:04;21.08;;;12.55;;
60851;SDS011;48553;50.766;2.900;2022-11-13T18:30:05;20.25;;;11.50;;
60851;SDS011;48553;50.766;2.900;2022-11-13T18:33:06;20.30;;;11.65;;
60851;SDS011;48553;50.766;2.900;2022-11-13T18:36:07;21.30;;;12.18;;
60851;SDS011;48553;50.766;2.900;2022-11-13T18:39:08;21.52;;;12.27;;
60851;SDS011;48553;50.766;2.900;2022-11-13T18:42:10;20.90;;;12.18;;
60851;SDS011;48553;50.766;2.900;2022-11-13T18:45:10;22.42;;;12.38;;
60851;SDS011;48553;50.766;2.900;2022-11-13T18:48:11;21.85;;;13.07;;
60851;SDS011;48553;50.766;2.900;2022-11-13T18:51:12;21.17;;;12.52;;
60851;SDS011;48553;50.766;2.900;2022-11-13T18:54:14;22.20;;;12.93;;
60851;SDS011;48553;50.766;2.900;2022-11-13T18:57:14;21.13;;;12.38;;
60851;SDS011;48553;50.766;2.900;2022-11-13T19:00:15;21.45;;;12.38;;
60851;SDS011;48553;50.766;2.900;2022-11-13T19:03:16;22.98;;;12.93;;
60851;SDS011;48553;50.766;2.900;2022-11-13T19:06:18;22.73;;;12.80;;
60851;SDS011;48553;50.766;2.900;2022-11-13T19:09:19;22.55;;;12.95;;